Terminal Aerodrome Forecast
Issued by NWS

Home | Current Version | Previous Version | Text Only | Print | Product List | Glossary On
Versions: 1 2 3 4 5 6 7 8 9 10 11 12 13 14 15 16 17 18 19 20 21 22 23 24 25 26
000
FTUS45 KGJT 041120
TAFVEL
TAF
KVEL 041120Z 0412/0512 27003KT P6SM SKC
     FM041400 VRB03KT P6SM SKC
     FM042000 25008G15KT P6SM FEW100
     FM050200 31005KT P6SM SKC=

USA.gov is the U.S. government's official web portal to all federal, state and local government web resources and services.